Las Cruces International Airport Las Cruces US
ICAO: KLRU
IATA: LRU
Category: Medium
Scheduled Services: No

Elevation: 4456 ft
TransAlt. 18000 ft.

Airport Communications:
AWOS 3:119.025
ALBUQUERQUE CNTR:128.2
CTAF/UNICOM:122.7

KLRU Zoom In..

If you have problems with the map follow the link
https://www.worldairports.se/pages/airport.php?
ICAO=KLRU

Runways:

(A) RW 04 length 7501 ft width 105 ft
---- / hdg 44

(B) RW 08 length 6069 ft width 100 ft
---- / hdg 79

(C) RW 12 length 7506 ft width 100 ft
---- / hdg 124

(D) RW 22 length 7501 ft width 105 ft
---- / hdg 224

(E) RW 26 length 6069 ft width 100 ft
---- / hdg 259

(F) RW 30 length 7506 ft width 100 ft
ILS 109.30 / hdg 304

Location; KLRU
Day. 19 / Time. 00.15 Zulu
* Altimeter: 30.25
* Temperature: 11° c. 51.8°f.
* Wind from: 000° Speed 00 kn.
Dewpoint: 11° c.
Visibility: 10 Statute Miles.
Clouds: Broken 1000 ft.
Clouds: Overcast 1500 ft.

KLRU 190015Z AUTO 00000KT 10SM BKN010 OVC015 11/11 A3025 RMK AO2 T01050105


Wind - Calm.

 
 
jpsmedia.com for Web Design worldairports.se 2018   terms of use